createdAt,value
2016-11-21T00:00:15.470Z,99.99
2016-11-21T00:01:24.163Z,99.99
2016-11-21T00:02:32.858Z,99.99
2016-11-21T00:03:41.552Z,99.99
2016-11-21T00:04:50.249Z,99.99
2016-11-21T00:05:58.974Z,99.99
2016-11-21T00:07:07.671Z,99.99
2016-11-21T00:08:16.358Z,99.99
2016-11-21T00:09:25.054Z,99.99
2016-11-21T00:10:33.742Z,99.99
2016-11-21T00:11:42.431Z,99.99
2016-11-21T00:12:51.125Z,99.99
2016-11-21T00:13:59.814Z,99.99
2016-11-21T00:15:08.505Z,99.99
2016-11-21T00:16:17.513Z,99.99
2016-11-21T00:17:26.209Z,99.99
2016-11-21T00:18:34.900Z,99.99
2016-11-21T00:19:43.590Z,99.99
2016-11-21T00:20:52.282Z,99.99
2016-11-21T00:22:00.980Z,99.99
2016-11-21T00:23:09.668Z,99.99
2016-11-21T00:24:18.358Z,99.99
2016-11-21T00:25:27.053Z,99.99
2016-11-21T00:26:35.745Z,99.99
2016-11-21T00:27:44.438Z,99.99
2016-11-21T00:28:53.135Z,99.99
2016-11-21T00:30:01.858Z,99.99
2016-11-21T00:31:10.553Z,99.99
2016-11-21T00:32:19.241Z,99.99
2016-11-21T00:33:27.964Z,99.99
2016-11-21T00:34:36.662Z,99.99
2016-11-21T00:35:45.351Z,99.99
2016-11-21T00:36:54.044Z,99.99
2016-11-21T00:38:02.734Z,99.99
2016-11-21T00:39:11.427Z,99.99
2016-11-21T00:40:20.117Z,99.99
2016-11-21T00:41:28.809Z,99.99
2016-11-21T00:42:37.547Z,99.99
2016-11-21T00:43:46.233Z,99.99
2016-11-21T00:44:54.925Z,99.99
2016-11-21T00:46:03.616Z,99.99
2016-11-21T00:47:12.312Z,99.99
2016-11-21T00:48:21.008Z,99.99
2016-11-21T00:49:29.709Z,99.99
2016-11-21T00:50:38.405Z,99.99
2016-11-21T00:51:47.095Z,99.99
2016-11-21T00:52:55.784Z,99.99
2016-11-21T00:54:04.481Z,99.99
2016-11-21T00:55:13.169Z,99.99
2016-11-21T00:56:21.857Z,99.99
2016-11-21T00:57:30.550Z,99.99
2016-11-21T00:58:39.252Z,99.99
2016-11-21T00:59:47.970Z,99.99
2016-11-21T01:00:56.667Z,99.99
2016-11-21T01:02:05.358Z,99.99
2016-11-21T01:03:14.097Z,99.99
2016-11-21T01:04:23.108Z,99.99
2016-11-21T01:05:31.801Z,99.99
2016-11-21T01:06:40.491Z,99.99
2016-11-21T01:07:49.183Z,99.99
2016-11-21T01:08:57.871Z,99.99
2016-11-21T01:10:06.566Z,99.99
2016-11-21T01:11:15.261Z,99.99
2016-11-21T01:12:23.950Z,99.99
2016-11-21T01:13:32.641Z,99.99
2016-11-21T01:14:41.352Z,99.99
2016-11-21T01:15:50.048Z,99.99
2016-11-21T01:16:58.751Z,99.99
2016-11-21T01:18:07.444Z,99.99
2016-11-21T01:19:16.132Z,99.99
2016-11-21T01:20:24.820Z,99.99
2016-11-21T01:21:33.509Z,99.99
2016-11-21T01:22:42.208Z,99.99
2016-11-21T01:23:50.902Z,99.99
2016-11-21T01:24:59.590Z,99.99
2016-11-21T01:26:08.280Z,99.99
2016-11-21T01:27:16.971Z,99.99
2016-11-21T01:28:25.665Z,99.99
2016-11-21T01:29:34.359Z,99.99
2016-11-21T01:30:43.052Z,99.99
2016-11-21T01:31:51.742Z,99.99
2016-11-21T01:33:00.429Z,99.99
2016-11-21T01:34:09.120Z,99.99
2016-11-21T01:35:17.808Z,99.99
2016-11-21T01:36:26.500Z,99.99
2016-11-21T01:37:35.197Z,99.99
2016-11-21T01:38:43.886Z,99.99
2016-11-21T01:39:52.577Z,99.99
2016-11-21T01:41:01.266Z,99.99
2016-11-21T01:42:09.958Z,99.99
2016-11-21T01:43:18.649Z,99.99
2016-11-21T01:44:27.337Z,99.99
2016-11-21T01:45:36.026Z,99.99
2016-11-21T01:46:44.725Z,99.99
2016-11-21T01:47:53.415Z,99.99
2016-11-21T01:49:02.111Z,99.99
2016-11-21T01:50:10.825Z,99.99
2016-11-21T01:51:19.831Z,99.99
2016-11-21T01:52:28.524Z,99.99
2016-11-21T01:53:37.215Z,99.99
2016-11-21T01:54:45.906Z,99.99
2016-11-21T01:55:54.625Z,99.99
2016-11-21T01:57:03.629Z,99.99
2016-11-21T01:58:12.316Z,99.99
2016-11-21T01:59:21.004Z,99.99
2016-11-21T02:00:29.700Z,99.99
2016-11-21T02:01:38.389Z,99.99
2016-11-21T02:02:47.085Z,99.99
2016-11-21T02:03:55.777Z,99.99
2016-11-21T02:05:04.469Z,99.99
2016-11-21T02:06:13.162Z,99.99
2016-11-21T02:07:21.851Z,99.99
2016-11-21T02:08:30.551Z,99.99
2016-11-21T02:09:39.237Z,99.99
2016-11-21T02:10:47.928Z,99.99
2016-11-21T02:11:56.623Z,99.99
2016-11-21T02:13:05.314Z,99.99
2016-11-21T02:14:14.003Z,99.99
2016-11-21T02:15:22.695Z,99.99
2016-11-21T02:16:31.381Z,99.99
2016-11-21T02:17:40.072Z,99.99
2016-11-21T02:18:48.785Z,99.99
2016-11-21T02:19:57.539Z,99.99
2016-11-21T02:21:06.239Z,99.99
2016-11-21T02:22:14.925Z,99.99
2016-11-21T02:23:23.620Z,99.99
2016-11-21T02:24:32.310Z,99.99
2016-11-21T02:25:41.003Z,99.99
2016-11-21T02:26:49.695Z,99.99
2016-11-21T02:27:58.386Z,99.99
2016-11-21T02:29:07.074Z,99.99
2016-11-21T02:30:15.769Z,99.99
2016-11-21T02:31:24.458Z,99.99
2016-11-21T02:32:33.148Z,99.99
2016-11-21T02:33:41.839Z,99.99
2016-11-21T02:34:50.531Z,99.99
2016-11-21T02:35:59.217Z,99.99
2016-11-21T02:37:07.907Z,99.99
2016-11-21T02:38:16.603Z,99.99
2016-11-21T02:39:25.300Z,99.99
2016-11-21T02:40:34.013Z,99.99
2016-11-21T02:41:42.703Z,99.99
2016-11-21T02:42:51.404Z,99.99
2016-11-21T02:44:00.101Z,99.99
2016-11-21T02:45:08.790Z,99.99
2016-11-21T02:46:17.810Z,99.99
2016-11-21T02:47:26.542Z,99.99
2016-11-21T02:48:35.233Z,99.99
2016-11-21T02:49:43.924Z,99.99
2016-11-21T02:50:52.651Z,99.99
2016-11-21T02:52:01.349Z,99.99
2016-11-21T02:53:10.044Z,99.99
2016-11-21T02:54:18.735Z,99.99
2016-11-21T02:55:27.427Z,99.99
2016-11-21T02:56:36.126Z,99.99
2016-11-21T02:57:44.839Z,99.99
2016-11-21T02:58:53.538Z,99.99
2016-11-21T03:00:02.243Z,99.99
2016-11-21T03:01:10.965Z,99.99
2016-11-21T03:02:19.974Z,99.99
2016-11-21T03:03:28.711Z,99.99
2016-11-21T03:04:37.434Z,99.99
2016-11-21T03:05:46.135Z,99.99
2016-11-21T03:06:55.146Z,99.99
2016-11-21T03:08:03.837Z,99.99
2016-11-21T03:09:12.581Z,99.99
2016-11-21T03:10:21.271Z,99.99
2016-11-21T03:11:29.960Z,99.99
2016-11-21T03:12:38.653Z,99.99
2016-11-21T03:13:47.345Z,99.99
2016-11-21T03:14:56.045Z,99.99
2016-11-21T03:16:04.740Z,99.99
2016-11-21T03:17:13.459Z,99.99
2016-11-21T03:18:22.150Z,99.99
2016-11-21T03:19:30.848Z,99.99
2016-11-21T03:20:39.543Z,99.99
2016-11-21T03:21:48.234Z,99.99
2016-11-21T03:22:56.924Z,99.99
2016-11-21T03:24:05.616Z,99.99
2016-11-21T03:25:14.308Z,99.99
2016-11-21T03:26:23.096Z,99.99
2016-11-21T03:27:31.817Z,99.99
2016-11-21T03:28:40.831Z,99.99
2016-11-21T03:29:49.521Z,99.99
2016-11-21T03:30:58.213Z,99.99
2016-11-21T03:32:06.902Z,99.99
2016-11-21T03:33:15.588Z,99.99
2016-11-21T03:34:24.294Z,99.99
2016-11-21T03:35:32.993Z,99.99
2016-11-21T03:36:41.684Z,99.99
2016-11-21T03:37:50.369Z,99.99
2016-11-21T03:38:59.063Z,99.99
2016-11-21T03:40:07.754Z,99.99
2016-11-21T03:41:16.767Z,99.99
2016-11-21T03:42:25.459Z,99.99
2016-11-21T03:43:34.459Z,99.99
2016-11-21T03:44:43.150Z,99.99
2016-11-21T03:45:51.841Z,99.99
2016-11-21T03:47:00.534Z,99.99
2016-11-21T03:48:09.244Z,99.99
2016-11-21T03:49:17.934Z,99.99
2016-11-21T03:50:26.627Z,99.99
2016-11-21T03:51:35.321Z,99.99
2016-11-21T03:52:44.007Z,99.99
2016-11-21T03:53:52.697Z,99.99
2016-11-21T03:55:01.447Z,99.99
2016-11-21T03:56:10.137Z,99.99
2016-11-21T03:57:18.827Z,99.99
2016-11-21T03:58:27.544Z,99.99
2016-11-21T03:59:36.232Z,99.99
2016-11-21T04:00:44.932Z,99.99
2016-11-21T04:01:53.630Z,99.99
2016-11-21T04:03:02.325Z,99.99
2016-11-21T04:04:11.018Z,99.99
2016-11-21T04:05:19.706Z,99.99
2016-11-21T04:06:28.405Z,99.99
2016-11-21T04:07:37.095Z,99.99
2016-11-21T04:08:45.785Z,99.99
2016-11-21T04:09:54.480Z,99.99
2016-11-21T04:11:03.177Z,99.99
2016-11-21T04:12:11.867Z,99.99
2016-11-21T04:13:20.561Z,99.99
2016-11-21T04:14:29.251Z,99.99
2016-11-21T04:15:37.938Z,99.99
2016-11-21T04:16:46.635Z,99.99
2016-11-21T04:17:55.329Z,99.99
2016-11-21T04:19:04.024Z,99.99
2016-11-21T04:20:12.715Z,99.99
2016-11-21T04:21:21.405Z,99.99
2016-11-21T04:22:30.102Z,99.99
2016-11-21T04:23:38.796Z,99.99
2016-11-21T04:24:47.489Z,99.99
2016-11-21T04:25:56.182Z,99.99
2016-11-21T04:27:04.868Z,99.99
2016-11-21T04:28:13.560Z,99.99
2016-11-21T04:29:22.248Z,99.99
2016-11-21T04:30:30.942Z,99.99
2016-11-21T04:31:39.632Z,99.99
2016-11-21T04:32:48.320Z,99.99
2016-11-21T04:33:57.014Z,99.99
2016-11-21T04:35:05.706Z,99.99
2016-11-21T04:36:14.393Z,99.99
2016-11-21T04:37:23.091Z,99.99
2016-11-21T04:38:31.778Z,99.99
2016-11-21T04:39:40.478Z,99.99
2016-11-21T04:40:49.168Z,99.99
2016-11-21T04:41:57.865Z,99.99
2016-11-21T04:43:06.556Z,99.99
2016-11-21T04:44:15.250Z,99.99
2016-11-21T04:45:23.937Z,99.99
2016-11-21T04:46:32.623Z,99.99
2016-11-21T04:47:41.310Z,99.99
2016-11-21T04:48:49.999Z,99.99
2016-11-21T04:49:58.687Z,99.99
2016-11-21T04:51:07.378Z,99.99
2016-11-21T04:52:16.069Z,99.99
2016-11-21T04:53:24.765Z,99.99
2016-11-21T04:54:33.450Z,99.99
2016-11-21T04:55:42.140Z,99.99
2016-11-21T04:56:50.830Z,99.99
2016-11-21T04:57:59.521Z,99.99
2016-11-21T04:59:08.209Z,99.99
2016-11-21T05:00:16.905Z,99.99
2016-11-21T05:01:25.626Z,99.99
2016-11-21T05:02:34.321Z,99.99
2016-11-21T05:03:43.009Z,99.99
2016-11-21T05:04:51.700Z,99.99
2016-11-21T05:06:00.396Z,99.99
2016-11-21T05:07:09.106Z,99.99
2016-11-21T05:08:17.800Z,99.99
2016-11-21T05:09:26.491Z,99.99
2016-11-21T05:10:35.182Z,99.99
2016-11-21T05:11:43.868Z,99.99
2016-11-21T05:12:52.558Z,99.99
2016-11-21T05:14:01.252Z,99.99
2016-11-21T05:15:09.942Z,99.99
2016-11-21T05:16:18.629Z,99.99
2016-11-21T05:17:27.321Z,99.99
2016-11-21T05:18:36.012Z,99.99
2016-11-21T05:19:44.717Z,99.99
2016-11-21T05:20:53.437Z,99.99
2016-11-21T05:22:02.129Z,99.99
2016-11-21T05:23:10.819Z,99.99
2016-11-21T05:24:19.511Z,99.99
2016-11-21T05:25:28.516Z,99.99
2016-11-21T05:26:37.209Z,99.99
2016-11-21T05:27:45.899Z,99.99
2016-11-21T05:28:54.587Z,99.99
2016-11-21T05:30:03.300Z,99.99
2016-11-21T05:31:11.989Z,99.99
2016-11-21T05:32:20.685Z,99.99
2016-11-21T05:33:29.378Z,99.99
2016-11-21T05:34:38.107Z,99.99
2016-11-21T05:35:46.805Z,99.99
2016-11-21T05:36:55.498Z,99.99
2016-11-21T05:38:04.542Z,99.99
2016-11-21T05:39:13.570Z,99.99
2016-11-21T05:40:22.261Z,99.99
2016-11-21T05:41:30.948Z,99.99
2016-11-21T05:42:39.646Z,99.99
2016-11-21T05:43:48.346Z,99.99
2016-11-21T05:44:57.035Z,99.99
2016-11-21T05:46:05.728Z,99.99
2016-11-21T05:47:14.416Z,99.99
2016-11-21T05:48:23.111Z,99.99
2016-11-21T05:49:31.799Z,99.99
2016-11-21T05:50:40.491Z,99.99
2016-11-21T05:51:49.201Z,99.99
2016-11-21T05:52:57.893Z,99.99
2016-11-21T05:54:06.583Z,99.99
2016-11-21T05:55:15.272Z,99.99
2016-11-21T05:56:23.967Z,99.99
2016-11-21T05:57:32.665Z,99.99
2016-11-21T05:58:41.361Z,99.99
2016-11-21T05:59:50.055Z,99.99
2016-11-21T06:00:58.793Z,99.99
2016-11-21T06:02:07.796Z,99.99
2016-11-21T06:03:16.489Z,99.99
2016-11-21T06:04:25.183Z,99.99
2016-11-21T06:05:33.904Z,99.99
2016-11-21T06:06:42.591Z,99.99
2016-11-21T06:07:51.282Z,99.99
2016-11-21T06:08:59.974Z,99.99
2016-11-21T06:10:08.668Z,99.99
2016-11-21T06:11:17.367Z,99.99
2016-11-21T06:12:26.059Z,99.99
2016-11-21T06:13:34.757Z,99.99
2016-11-21T06:14:43.447Z,99.99
2016-11-21T06:15:52.140Z,99.99
2016-11-21T06:17:00.826Z,99.99
2016-11-21T06:18:09.515Z,99.99
2016-11-21T06:19:18.210Z,99.99
2016-11-21T06:20:26.902Z,99.99
2016-11-21T06:21:35.598Z,99.99
2016-11-21T06:22:44.285Z,99.99
2016-11-21T06:23:52.972Z,99.99
2016-11-21T06:25:01.672Z,99.99
2016-11-21T06:26:10.376Z,99.99
2016-11-21T06:27:19.066Z,99.99
2016-11-21T06:28:27.786Z,99.99
2016-11-21T06:29:36.792Z,99.99
2016-11-21T06:30:45.481Z,99.99
2016-11-21T06:31:54.169Z,99.99
2016-11-21T06:33:03.185Z,99.99
2016-11-21T06:34:11.874Z,99.99
2016-11-21T06:35:20.609Z,99.99
2016-11-21T06:36:29.304Z,99.99
2016-11-21T06:37:37.995Z,99.99
2016-11-21T06:38:46.691Z,99.99
2016-11-21T06:39:55.383Z,99.99
2016-11-21T06:41:04.075Z,99.99
2016-11-21T06:42:12.762Z,99.99
2016-11-21T06:43:21.463Z,99.99
2016-11-21T06:44:30.150Z,99.99
2016-11-21T06:45:38.839Z,99.99
2016-11-21T06:46:47.527Z,99.99
2016-11-21T06:47:56.221Z,99.99
2016-11-21T06:49:04.916Z,99.99
2016-11-21T06:50:13.639Z,99.99
2016-11-21T06:51:22.330Z,99.99
2016-11-21T06:52:31.019Z,99.99
2016-11-21T06:53:39.710Z,99.99
2016-11-21T06:54:48.411Z,99.99
2016-11-21T06:55:57.105Z,99.99
2016-11-21T06:57:05.796Z,99.99
2016-11-21T06:58:14.486Z,99.99
2016-11-21T06:59:23.179Z,99.99
2016-11-21T07:00:31.871Z,99.99
2016-11-21T07:01:40.566Z,99.99
2016-11-21T07:02:49.256Z,99.99
2016-11-21T07:03:57.948Z,99.99
2016-11-21T07:05:06.646Z,99.99
2016-11-21T07:06:15.339Z,99.99
2016-11-21T07:07:24.037Z,99.99
2016-11-21T07:08:32.759Z,99.99
2016-11-21T07:09:41.450Z,99.99
2016-11-21T07:10:50.152Z,99.99
2016-11-21T07:11:58.840Z,99.99
2016-11-21T07:13:07.563Z,99.99
2016-11-21T07:14:16.250Z,99.99
2016-11-21T07:15:24.943Z,99.99
2016-11-21T07:16:33.641Z,99.99
2016-11-21T07:17:42.328Z,99.99
2016-11-21T07:18:51.018Z,99.99
2016-11-21T07:19:59.717Z,99.99
2016-11-21T07:21:08.412Z,99.99
2016-11-21T07:22:17.100Z,99.99
2016-11-21T07:23:25.794Z,99.99
2016-11-21T07:24:34.480Z,99.99
2016-11-21T07:25:43.171Z,99.99
2016-11-21T07:26:51.871Z,99.99
2016-11-21T07:28:00.583Z,99.99
2016-11-21T07:29:09.270Z,99.99
2016-11-21T07:30:17.957Z,99.99
2016-11-21T07:31:26.648Z,99.99
2016-11-21T07:32:35.333Z,99.99
2016-11-21T07:33:44.025Z,99.99
2016-11-21T07:34:52.721Z,99.99
2016-11-21T07:36:01.455Z,99.99
2016-11-21T07:37:10.147Z,99.99
2016-11-21T07:38:18.840Z,99.99
2016-11-21T07:39:27.537Z,99.99
2016-11-21T07:40:36.228Z,99.99
2016-11-21T07:41:44.920Z,99.99
2016-11-21T07:42:53.613Z,99.99
2016-11-21T07:44:02.306Z,99.99
2016-11-21T07:45:11.312Z,99.99
2016-11-21T07:46:20.003Z,99.99
2016-11-21T07:47:28.697Z,99.99
2016-11-21T07:48:37.421Z,99.99
2016-11-21T07:49:46.107Z,99.99
2016-11-21T07:50:54.791Z,99.99
2016-11-21T07:52:03.479Z,99.99
2016-11-21T07:53:12.174Z,99.99
2016-11-21T07:54:21.183Z,99.99
2016-11-21T07:55:29.878Z,99.99
2016-11-21T07:56:38.573Z,99.99
2016-11-21T07:57:47.267Z,99.99
2016-11-21T07:58:55.961Z,99.99
2016-11-21T08:00:04.663Z,99.99
2016-11-21T08:01:13.352Z,99.99
2016-11-21T08:02:22.046Z,99.99
2016-11-21T08:03:30.743Z,99.99
2016-11-21T08:04:39.435Z,99.99
2016-11-21T08:05:48.125Z,99.99
2016-11-21T08:06:56.867Z,99.99
2016-11-21T08:08:05.875Z,99.99
2016-11-21T08:09:14.566Z,99.99
2016-11-21T08:10:23.252Z,99.99
2016-11-21T08:11:31.942Z,99.99
2016-11-21T08:12:40.736Z,99.99
2016-11-21T08:13:49.442Z,99.99
2016-11-21T08:14:58.136Z,99.99
2016-11-21T08:16:06.828Z,99.99
2016-11-21T08:17:15.520Z,99.99
2016-11-21T08:18:24.220Z,99.99
2016-11-21T08:19:32.911Z,99.99
2016-11-21T08:20:41.619Z,99.99
2016-11-21T08:21:50.307Z,99.99
2016-11-21T08:22:58.997Z,99.99
2016-11-21T08:24:07.689Z,99.99
2016-11-21T08:25:16.375Z,99.99
2016-11-21T08:26:25.087Z,99.99
2016-11-21T08:27:33.781Z,99.99
2016-11-21T08:28:42.501Z,99.99
2016-11-21T08:29:51.189Z,99.99
2016-11-21T08:30:59.877Z,99.99
2016-11-21T08:32:08.565Z,99.9
2016-11-21T08:33:17.290Z,99.71
2016-11-21T08:34:26.294Z,99.62
2016-11-21T08:35:34.986Z,99.81
2016-11-21T08:36:43.673Z,99.43
2016-11-21T08:37:52.358Z,99.43
2016-11-21T08:39:01.046Z,99.81
2016-11-21T08:40:09.735Z,99.43
2016-11-21T08:41:18.425Z,99.99
2016-11-21T08:42:27.115Z,99.99
2016-11-21T08:43:35.807Z,99.24
2016-11-21T08:44:44.507Z,99.9
2016-11-21T08:45:53.206Z,99.71
2016-11-21T08:47:01.898Z,99.71
2016-11-21T08:48:10.588Z,99.62
2016-11-21T08:49:19.289Z,99.43
2016-11-21T08:50:27.993Z,99.71
2016-11-21T08:51:36.684Z,98.86
2016-11-21T08:52:45.385Z,98.86
2016-11-21T08:53:54.073Z,98.01
2016-11-21T08:55:02.762Z,98.2
2016-11-21T08:56:11.460Z,98.49
2016-11-21T08:57:20.168Z,97.44
2016-11-21T08:58:28.859Z,97.63
2016-11-21T08:59:37.551Z,97.25
2016-11-21T09:00:46.245Z,96.69
2016-11-21T09:01:54.933Z,96.69
2016-11-21T09:03:03.651Z,97.02
2016-11-21T09:04:12.342Z,96.4
2016-11-21T09:05:21.036Z,96.26
2016-11-21T09:06:29.734Z,96.45
2016-11-21T09:07:38.426Z,96.36
2016-11-21T09:08:47.146Z,96.59
2016-11-21T09:09:55.843Z,96.92
2016-11-21T09:11:04.536Z,96.69
2016-11-21T09:12:13.278Z,96.88
2016-11-21T09:13:22.041Z,97.73
2016-11-21T09:14:30.846Z,97.63
2016-11-21T09:15:39.535Z,97.73
2016-11-21T09:16:48.228Z,98.3
2016-11-21T09:17:56.914Z,98.39
2016-11-21T09:19:05.626Z,98.2
2016-11-21T09:20:14.347Z,98.96
2016-11-21T09:21:23.087Z,98.86
2016-11-21T09:22:31.777Z,98.68
2016-11-21T09:23:40.515Z,98.96
2016-11-21T09:24:49.206Z,99.15
2016-11-21T09:25:57.916Z,98.58
2016-11-21T09:27:06.612Z,99.24
2016-11-21T09:28:15.327Z,99.05
2016-11-21T09:29:24.013Z,98.86
2016-11-21T09:30:32.712Z,99.71
2016-11-21T09:31:41.405Z,99.52
2016-11-21T09:32:50.098Z,99.24
2016-11-21T09:33:59.100Z,98.96
2016-11-21T09:35:07.796Z,98.86
2016-11-21T09:36:16.490Z,99.24
2016-11-21T09:37:25.184Z,99.33
2016-11-21T09:38:33.876Z,99.05
2016-11-21T09:39:42.570Z,98.2
2016-11-21T09:40:51.259Z,98.11
2016-11-21T09:41:59.951Z,97.73
2016-11-21T09:43:08.642Z,97.06
2016-11-21T09:44:17.331Z,97.63
2016-11-21T09:45:26.033Z,97.63
2016-11-21T09:46:34.755Z,97.63
2016-11-21T09:47:43.455Z,97.16
2016-11-21T09:48:52.145Z,96.69
2016-11-21T09:50:00.839Z,96.5
2016-11-21T09:51:09.531Z,95.83
2016-11-21T09:52:18.232Z,95.93
2016-11-21T09:53:26.917Z,95.6
2016-11-21T09:54:35.603Z,95.41
2016-11-21T09:55:44.296Z,95.31
2016-11-21T09:56:52.984Z,95.41
2016-11-21T09:58:01.678Z,94.65
2016-11-21T09:59:10.376Z,94.84
2016-11-21T10:00:19.078Z,94.08
2016-11-21T10:01:27.800Z,93.42
2016-11-21T10:02:36.486Z,92.85
2016-11-21T10:03:45.175Z,92.85
2016-11-21T10:04:53.863Z,92.66
2016-11-21T10:06:02.585Z,92.71
2016-11-21T10:07:11.307Z,92.14
2016-11-21T10:08:19.999Z,92.52
2016-11-21T10:09:28.687Z,92.33
2016-11-21T10:10:37.381Z,92
2016-11-21T10:11:46.073Z,91.85
2016-11-21T10:12:54.761Z,91.66
2016-11-21T10:14:03.503Z,91.57
2016-11-21T10:15:12.200Z,91
2016-11-21T10:16:20.891Z,90.72
2016-11-21T10:17:29.610Z,90.24
2016-11-21T10:18:38.304Z,90.34
2016-11-21T10:19:47.013Z,90.72
2016-11-21T10:20:55.706Z,90.72
2016-11-21T10:22:04.410Z,90.62
2016-11-21T10:23:13.108Z,90.53
2016-11-21T10:24:21.798Z,91.52
2016-11-21T10:25:30.498Z,91.71
2016-11-21T10:26:39.206Z,92.57
2016-11-21T10:27:47.900Z,92.85
2016-11-21T10:28:56.622Z,94.27
2016-11-21T10:30:05.317Z,94.51
2016-11-21T10:31:14.015Z,95.17
2016-11-21T10:32:22.704Z,95.74
2016-11-21T10:33:31.400Z,95.07
2016-11-21T10:34:40.105Z,95.74
2016-11-21T10:35:48.797Z,95.64
2016-11-21T10:36:57.482Z,95.74
2016-11-21T10:38:06.168Z,95.45
2016-11-21T10:39:15.177Z,95.26
2016-11-21T10:40:23.874Z,95.36
2016-11-21T10:41:32.593Z,95.36
2016-11-21T10:42:41.283Z,94.98
2016-11-21T10:43:49.971Z,95.36
2016-11-21T10:44:58.660Z,94.84
2016-11-21T10:46:07.350Z,94.98
2016-11-21T10:47:16.041Z,95.17
2016-11-21T10:48:24.765Z,95.17
2016-11-21T10:49:33.464Z,95.64
2016-11-21T10:50:42.159Z,96.12
2016-11-21T10:51:50.851Z,96.59
2016-11-21T10:52:59.543Z,95.93
2016-11-21T10:54:08.237Z,95.45
2016-11-21T10:55:16.924Z,94.08
2016-11-21T10:56:25.617Z,93.89
2016-11-21T10:57:34.645Z,93.99
2016-11-21T10:58:43.690Z,95.07
2016-11-21T10:59:52.384Z,95.55
2016-11-21T11:01:01.083Z,95.55
2016-11-21T11:02:09.775Z,96.4
2016-11-21T11:03:18.476Z,96.78
2016-11-21T11:04:27.173Z,96.31
2016-11-21T11:05:35.865Z,96.02
2016-11-21T11:06:44.554Z,95.74
2016-11-21T11:07:53.247Z,94.89
2016-11-21T11:09:01.940Z,94.93
2016-11-21T11:10:10.644Z,94.08
2016-11-21T11:11:19.337Z,93.7
2016-11-21T11:12:28.032Z,92.28
2016-11-21T11:13:36.750Z,90.77
2016-11-21T11:14:45.444Z,89.2
2016-11-21T11:15:54.141Z,87.49
2016-11-21T11:17:02.831Z,88.06
2016-11-21T11:18:11.521Z,89.2
2016-11-21T11:19:20.214Z,90.39
2016-11-21T11:20:28.913Z,91.33
2016-11-21T11:21:37.603Z,91.14
2016-11-21T11:22:46.293Z,89.72
2016-11-21T11:23:55.012Z,89.15
2016-11-21T11:25:03.707Z,89.53
2016-11-21T11:26:12.402Z,89.63
2016-11-21T11:27:21.174Z,89.53
2016-11-21T11:28:29.880Z,89.15
2016-11-21T11:29:38.578Z,89.63
2016-11-21T11:30:47.276Z,89.15
2016-11-21T11:31:55.979Z,89.25
2016-11-21T11:33:04.668Z,88.87
2016-11-21T11:34:13.364Z,89.44
2016-11-21T11:35:22.054Z,89.72
2016-11-21T11:36:30.744Z,88.11
2016-11-21T11:37:39.433Z,85.22
2016-11-21T11:38:48.122Z,80.37
2016-11-21T11:39:56.815Z,77.03
2016-11-21T11:41:05.826Z,74.41
2016-11-21T11:42:14.538Z,72.55
2016-11-21T11:43:23.600Z,74.54
2016-11-21T11:44:32.296Z,75.17
2016-11-21T11:45:40.992Z,76.18
2016-11-21T11:46:49.684Z,76.08
2016-11-21T11:47:58.402Z,75.74
2016-11-21T11:49:07.097Z,76.65
2016-11-21T11:50:15.798Z,79.08
2016-11-21T11:51:24.526Z,80.32
2016-11-21T11:52:33.558Z,80.22
2016-11-21T11:53:42.260Z,76.37
2016-11-21T11:54:50.956Z,75.17
2016-11-21T11:55:59.885Z,72.07
2016-11-21T11:57:08.580Z,68.24
2016-11-21T11:58:17.277Z,65.89
2016-11-21T11:59:25.981Z,65.16
2016-11-21T12:00:34.679Z,67.7
2016-11-21T12:01:43.371Z,71.41
2016-11-21T12:02:52.069Z,74.12
2016-11-21T12:04:00.767Z,77.18
2016-11-21T12:05:09.475Z,78.89
2016-11-21T12:06:18.173Z,80.27
2016-11-21T12:07:26.873Z,82.32
2016-11-21T12:08:35.570Z,83.94
2016-11-21T12:09:44.295Z,85.31
2016-11-21T12:10:52.993Z,85.41
2016-11-21T12:12:01.688Z,83.51
2016-11-21T12:13:10.771Z,79.47
2016-11-21T12:14:19.473Z,76.71
2016-11-21T12:15:28.524Z,75.76
2016-11-21T12:16:37.223Z,75.13
2016-11-21T12:17:45.951Z,73.61
2016-11-21T12:18:54.699Z,72.66
2016-11-21T12:20:03.395Z,71.27
2016-11-21T12:21:12.093Z,70.61
2016-11-21T12:22:20.785Z,69.37
2016-11-21T12:23:29.482Z,68.93
2016-11-21T12:24:38.322Z,68.07
2016-11-21T12:25:47.016Z,66.65
2016-11-21T12:26:56.055Z,65.83
2016-11-21T12:28:05.069Z,64.69
2016-11-21T12:29:14.119Z,64.02
2016-11-21T12:30:23.163Z,62.72
2016-11-21T12:31:31.862Z,62.24
2016-11-21T12:32:40.562Z,60.66
2016-11-21T12:33:49.266Z,59.92
2016-11-21T12:34:57.961Z,59.54
2016-11-21T12:36:06.663Z,59.64
2016-11-21T12:37:15.358Z,60.59
2016-11-21T12:38:24.057Z,64.81
2016-11-21T12:39:32.758Z,67.5
2016-11-21T12:40:41.461Z,71.18
2016-11-21T12:41:50.160Z,73.96
2016-11-21T12:42:58.855Z,76.9
2016-11-21T12:44:07.559Z,79.61
2016-11-21T12:45:16.255Z,81.37
2016-11-21T12:46:24.951Z,83.42
2016-11-21T12:47:33.643Z,84.17
2016-11-21T12:48:42.342Z,83.98
2016-11-21T12:49:51.055Z,79.06
2016-11-21T12:50:59.752Z,73.67
2016-11-21T12:52:08.445Z,69.56
2016-11-21T12:53:17.142Z,66.46
2016-11-21T12:54:25.842Z,65.16
2016-11-21T12:55:34.536Z,63.57
2016-11-21T12:56:43.234Z,62.81
2016-11-21T12:57:51.930Z,63.57
2016-11-21T12:59:00.940Z,63.57
2016-11-21T13:00:09.658Z,63.96
2016-11-21T13:01:18.358Z,63.96
2016-11-21T13:02:27.062Z,63.76
2016-11-21T13:03:35.763Z,64.02
2016-11-21T13:04:44.461Z,64.97
2016-11-21T13:05:53.156Z,68.74
2016-11-21T13:07:01.858Z,72.47
2016-11-21T13:08:10.554Z,76.14
2016-11-21T13:09:19.267Z,77.43
2016-11-21T13:10:28.323Z,77.52
2016-11-21T13:11:37.042Z,78
2016-11-21T13:12:45.741Z,78.47
2016-11-21T13:13:54.435Z,78.19
2016-11-21T13:15:03.129Z,79.66
2016-11-21T13:16:11.823Z,81.47
2016-11-21T13:17:20.520Z,83.42
2016-11-21T13:18:29.212Z,84.27
2016-11-21T13:19:37.908Z,86.12
2016-11-21T13:20:46.606Z,86.41
2016-11-21T13:21:55.297Z,86.79
2016-11-21T13:23:03.986Z,87.45
2016-11-21T13:24:12.681Z,87.64
2016-11-21T13:25:21.386Z,87.35
2016-11-21T13:26:30.087Z,87.35
2016-11-21T13:27:38.782Z,87.16
2016-11-21T13:28:47.474Z,86.88
2016-11-21T13:29:56.167Z,87.16
2016-11-21T13:31:04.866Z,87.59
2016-11-21T13:32:13.572Z,88.45
2016-11-21T13:33:22.265Z,89.58
2016-11-21T13:34:30.960Z,89.68
2016-11-21T13:35:39.655Z,90.44
2016-11-21T13:36:48.345Z,90.34
2016-11-21T13:37:57.034Z,90.44
2016-11-21T13:39:05.726Z,91.34
2016-11-21T13:40:14.418Z,91.62
2016-11-21T13:41:23.112Z,91.62
2016-11-21T13:42:31.833Z,92.57
2016-11-21T13:43:40.532Z,92.1
2016-11-21T13:44:49.224Z,92.47
2016-11-21T13:45:57.913Z,92.66
2016-11-21T13:47:06.691Z,93.13
2016-11-21T13:48:15.403Z,93.8
2016-11-21T13:49:24.096Z,94.18
2016-11-21T13:50:32.794Z,93.7
2016-11-21T13:51:41.487Z,94.65
2016-11-21T13:52:50.183Z,94.56
2016-11-21T13:53:58.913Z,94.46
2016-11-21T13:55:07.604Z,94.7
2016-11-21T13:56:16.290Z,94.93
2016-11-21T13:57:24.980Z,95.45
2016-11-21T13:58:33.671Z,94.51
2016-11-21T13:59:42.362Z,94.6
2016-11-21T14:00:51.053Z,95.26
2016-11-21T14:01:59.776Z,95.26
2016-11-21T14:03:08.466Z,95.17
2016-11-21T14:04:17.198Z,96.4
2016-11-21T14:05:25.895Z,97.16
2016-11-21T14:06:34.592Z,97.44
2016-11-21T14:07:43.287Z,98.96
2016-11-21T14:08:51.978Z,99.19
2016-11-21T14:10:00.678Z,99.38
2016-11-21T14:11:09.376Z,99.85
2016-11-21T14:12:18.063Z,99.76
2016-11-21T14:13:26.805Z,99.09
2016-11-21T14:14:35.498Z,99.19
2016-11-21T14:15:44.190Z,99.99
2016-11-21T14:16:52.880Z,98.9
2016-11-21T14:18:01.571Z,99.99
2016-11-21T14:19:10.262Z,99.99
2016-11-21T14:20:18.952Z,99.99
2016-11-21T14:21:27.643Z,99.99
2016-11-21T14:22:36.335Z,99.99
2016-11-21T14:23:45.084Z,99.99
2016-11-21T14:24:53.773Z,99.99
2016-11-21T14:26:02.470Z,99.99
2016-11-21T14:27:11.157Z,99.99
2016-11-21T14:28:20.360Z,99.99
2016-11-21T14:29:29.087Z,99.66
2016-11-21T14:30:37.796Z,99.99
2016-11-21T14:31:46.504Z,99.99
2016-11-21T14:32:55.201Z,99.99
2016-11-21T14:34:03.900Z,99.99
2016-11-21T14:35:12.597Z,99.99
2016-11-21T14:36:21.398Z,99.95
2016-11-21T14:37:30.092Z,99.99
2016-11-21T14:38:38.786Z,99.24
2016-11-21T14:39:47.478Z,99.38
2016-11-21T14:40:56.226Z,99.71
2016-11-21T14:42:04.916Z,99.62
2016-11-21T14:43:13.609Z,99.62
2016-11-21T14:44:22.296Z,99.99
2016-11-21T14:45:30.985Z,99.62